Warning: Javascript must be enabled to use all the features on this page!


Page Loading - Please Wait...

Click to hideNews Bulletins

Peak Streamflow for the Nation

USGS 09484600 PANTANO WASH NEAR VAIL, AZ.

Pima County, Arizona
Hydrologic Unit Code 15050302
Latitude  32°02'09", Longitude 110°40'37" NAD27
Drainage area 457  square miles
Gage datum 3,205 feet above NGVD29
Output formats
Table
Graph
Tab-separated file
peakfq (watstore) format
Reselect output format
Water
Year
Date Gage
Height
(feet)
Stream-
flow
(cfs)
1958 1958-08-11 24.00 38,0002,7
1959 1959-08-17 9.60 9,310
1960 1960-08-09 8.30 7,300
1961 1961-08-28 6.87 5,280
1962 1962-09-26 3.65 1,500
1963 1963-08-25 10.90 9,700
1964 1964-09-10 11.06 9,960
1965 1965-09-12 8.23 5,880
1966 1966-08-13 9.25 7,410
1967 1967-08-18 9.54 7,680
1968 1967-12-20 5.48 2,640
1969 1969-08-05 3.40 857
1970 1970-07-20 8.95 6,850
1971 1971-08-19 10.34 8,700
1972 1972-09-07 4.65 1,460
1973 1972-10-04 3.10 371
1974 1974-07-20 7.05 1,780
1975 1975-09-02 6.70 1,200
1976 1976-07-25 10.86 5,200
1977 1977-09-10 7.31 1,600
1978 1977-10-06 6.71 1,300
1979 1978-12-18 5.92 790
1980 1980-09-07 6.77 1,300
1981 1981-09-22 13.25 13,000
1982 1982-08-23 9.31 3,400
1983 1983-08-03 7.62 1,840
1984 1983-10-02 15.25 12,000
1985 1985-08-20 4.94 363
1986 1986-08-17 6.35 1,020
1987 1987-09-24 6.96 1,370
1988 1988-07-29 12.57 7,420
1989 1989-07-21 5.90 803
1990 1990-07-24 9.97 3,960
1991 1991-03-02 4.49 129
1992 1992-07-10 6.52 834
1993 1993-07-11 8.10 1,840
1994 1994-09-11 8.75 2,370
1995 1995-01-05 6.18 650
1996 1996-09-01 8.64 2,270
1997 1997-08-17 7.88 1,700
1998 1998-07-07 9.65 3,230
1999 1999-07-14 10.93 4,570
2000 2000-06-30 8.54 2,230
2001 2001-08-29 10.25 3,830
2002 2002-09-10 7.77 1,620
2003 2003-07-24 7.49 1,420
2004 2004-08-05 10.92 4,560
2005 2005-09-09 8.30 2,030
2006 2006-07-27 11.39 5,1002
2007 2007-07-23 11.35 5,050
2008 2008-08-27 13.49 10,100
2009 2009-09-03 5.91 172
2010 2010-07-30 10.94 4,910
2011 2011-07-05 11.28 5,470
2012 2012-08-21 9.94 3,400
2013 2013-07-05 10.74 4,590
2014 2014-08-17 11.15 5,250
2015 2015-09-02 8.49 1,580
2016 2016-09-29   1,020
2017 2017-07-23 13.20 9,230
2018 2018-09-19 11.55 5,660
2019 2019-09-24 8.46 1,550
2020 2020-08-20 8.51 1,590
2021 2021-07-23   15,700
?
  Peak Streamflow Qualification Codes.